Airfield :
LOGIN :

Register | Disclaimer

   EN    FR    IT 

 










Legend :    VFR   Marginal VFR   IFR   Intensive IFR   Very Intensive IFR
Visi :
Ceiling :
>= 8 km
>= 3000ft
5 to 8 km
1000 to 3000 ft
1500m to 5 km
500 to 1000 ft
800 to 1500m
200 to 500 ft
< 800m
< 200 ft
Symbols :   Thunderstorms  Fog  Heavy snow  Heavy precipitations  Wind > 20 kt
SIGMETs :     Misc.  Thunderstorms  Icing  Turbulence  Mountain Waves  Volcanic Ashes






- Airport Elevation : 36 ft
- IATA code : RIX


EVRA - Riga

CURRENT METAR :
  • 301320Z 22006KT 190V250 7000 -SN BKN004 OVC041 01/00 Q1017 RESN R18/690195 TEMPO 3000

EXPIRED METARs :
  • 301250Z 22006KT 8000 -SN BKN003 BKN011 OVC034 01/00 Q1017 R18/690195 TEMPO 3000
  • 301220Z 23005KT 7000 -SN BKN003 OVC036 00/00 Q1017 RESN R18/590339 TEMPO 3000
  • 301150Z 23006KT 9000 SN BKN005 00/00 Q1017 R18/590339 TEMPO 3000
  • 301120Z 23005KT 9999 -SN FEW014 BKN022 OVC026 00/M00 Q1017 RESN R18/590339 NOSIG
  • 301050Z 25004KT 210V310 3500 SN FEW005 SCT013 OVC022 00/00 Q1017 R18/590339 NOSIG

TAF TAF EVRA
Valid from the 30 at 12:00 until the 01 at 12:00 UTC


301107Z 3012/0112 20005KT 8000 OVC010
TEMPO 3012/3015 1500 SN BR BKN004 OVC010
TEMPO 3015/3021 3000 RASN BR BKN002
TEMPO 3021/0108 4000 SHRASN BKN005 SCT015CB



MET'MAP, your aeronautical weather chart ! - Copyright ORBIFLY December 2007 - Disclaimer

ORBIFLY MET'MAP TEAM :

Programming & Development : Alexandra Zaïnal
Concept & original design : Baudouin d'Aumeries
Assistance for programming : Marc-Olivier Méhu
Technical & hardware support : Manuel Goepfert

Contact : metmap@orbifly.com




SOURCES & CREDITS :

   NOAA